Time;durP1;ratioP1;P1;durP2;ratioP2;P2;SDS_P1;SDS_P2;PMS_P1;PMS_P2;Temp;Humidity;BMP_temperature;BMP_pressure;BME280_temperature;BME280_humidity;BME280_pressure;Samples;Min_cycle;Max_cycle;Signal;HPM_P1;HPM_P2
2020/12/08 00:01:22;;;;;;;17.27;8.48;;;;;;;5.68;67.00;102184.48;1760517;81;21561;-46
2020/12/08 00:03:50;;;;;;;15.18;7.58;;;;;;;5.66;67.00;102184.00;1734376;82;21139;-45
2020/12/08 00:06:19;;;;;;;16.50;8.05;;;;;;;5.63;66.98;102173.17;1697377;84;21176;-46
2020/12/08 00:08:47;;;;;;;15.38;8.30;;;;;;;5.61;66.82;102177.84;1729431;82;21658;-46
2020/12/08 00:11:16;;;;;;;20.15;8.60;;;;;;;5.55;66.80;102177.31;1733493;82;21172;-46
2020/12/08 00:13:45;;;;;;;19.52;7.87;;;;;;;5.54;66.85;102182.45;1771738;81;21302;-46
2020/12/08 00:16:14;;;;;;;19.10;8.35;;;;;;;5.51;66.99;102186.24;1765154;80;21193;-47
2020/12/08 00:18:42;;;;;;;14.50;8.33;;;;;;;5.53;67.09;102203.93;1746989;81;21585;-46
2020/12/08 00:21:11;;;;;;;14.30;7.87;;;;;;;5.53;66.96;102195.77;1768024;81;21153;-45
2020/12/08 00:23:39;;;;;;;15.72;7.83;;;;;;;5.51;66.85;102188.83;1765824;81;21153;-46
2020/12/08 00:26:08;;;;;;;12.55;7.28;;;;;;;5.52;66.84;102190.59;1719084;82;21581;-46
2020/12/08 00:28:36;;;;;;;18.75;8.55;;;;;;;5.50;66.81;102189.69;1767784;81;21196;-46
2020/12/08 00:31:05;;;;;;;15.72;7.95;;;;;;;5.47;66.82;102171.53;1769891;81;21169;-46
2020/12/08 00:33:34;;;;;;;14.20;7.60;;;;;;;5.45;66.80;102168.92;1711532;84;21560;-46
2020/12/08 00:36:02;;;;;;;17.55;8.08;;;;;;;5.44;66.72;102189.55;1775532;80;21172;-46
2020/12/08 00:38:31;;;;;;;22.40;9.23;;;;;;;5.41;66.67;102186.89;1765331;81;21156;-46
2020/12/08 00:41:00;;;;;;;15.30;7.83;;;;;;;5.40;66.81;102183.42;1770421;81;21149;-46
2020/12/08 00:43:29;;;;;;;16.82;8.23;;;;;;;5.41;66.96;102192.93;1769443;81;21145;-46
2020/12/08 00:45:57;;;;;;;16.60;8.78;;;;;;;5.41;66.98;102180.44;1764259;81;21290;-45
2020/12/08 00:48:25;;;;;;;15.15;8.28;;;;;;;5.44;67.04;102181.81;1733805;82;21318;-46
2020/12/08 00:50:54;;;;;;;15.70;8.10;;;;;;;5.47;66.94;102191.77;1691848;84;21209;-46
2020/12/08 00:53:23;;;;;;;17.42;7.55;;;;;;;5.48;66.81;102188.78;1761843;81;21287;-46
2020/12/08 00:55:51;;;;;;;21.77;9.05;;;;;;;5.46;66.69;102198.20;1763629;81;21132;-46
2020/12/08 00:58:20;;;;;;;17.65;8.58;;;;;;;5.44;66.76;102202.45;1711373;84;21135;-46
2020/12/08 01:00:49;;;;;;;15.90;8.23;;;;;;;5.44;66.72;102205.04;1769863;80;21283;-46
2020/12/08 01:03:18;;;;;;;15.78;8.55;;;;;;;5.43;66.69;102204.57;1711704;84;21636;-46
2020/12/08 01:05:46;;;;;;;15.18;7.62;;;;;;;5.43;66.76;102201.98;1771470;80;21283;-45
2020/12/08 01:08:14;;;;;;;13.95;8.00;;;;;;;5.42;66.87;102195.95;1765139;81;21149;-46
2020/12/08 01:10:43;;;;;;;11.33;7.05;;;;;;;5.44;66.88;102197.30;1761655;81;21164;-46
2020/12/08 01:13:12;;;;;;;18.48;7.97;;;;;;;5.45;66.89;102197.32;1711855;84;21166;-46
2020/12/08 01:15:40;;;;;;;17.85;8.63;;;;;;;5.45;66.71;102184.83;1770134;81;21160;-46
2020/12/08 01:18:09;;;;;;;21.12;8.15;;;;;;;5.45;66.71;102184.41;1702342;84;21132;-46
2020/12/08 01:20:38;;;;;;;19.37;8.25;;;;;;;5.47;66.92;102181.86;1777107;81;21573;-46
2020/12/08 01:23:09;;;;;;;14.73;7.83;;;;;;;5.49;66.91;102182.77;1720757;82;21167;-46
2020/12/08 01:25:37;;;;;;;15.95;7.67;;;;;;;5.49;66.69;102177.59;1726710;82;21164;-46
2020/12/08 01:28:06;;;;;;;18.20;8.85;;;;;;;5.46;66.72;102175.81;1777153;81;21169;-46
2020/12/08 01:30:34;;;;;;;13.53;7.42;;;;;;;5.46;66.77;102174.97;1739443;81;21164;-46
2020/12/08 01:33:02;;;;;;;13.88;7.42;;;;;;;5.45;66.65;102165.46;1776881;81;21150;-45
2020/12/08 01:35:31;;;;;;;17.92;7.67;;;;;;;5.44;66.70;102161.16;1763938;81;21160;-46
2020/12/08 01:38:00;;;;;;;19.23;7.67;;;;;;;5.44;66.53;102150.83;1711359;84;21175;-45
2020/12/08 01:40:28;;;;;;;16.25;7.33;;;;;;;5.41;66.38;102155.91;1762920;81;21188;-46
2020/12/08 01:42:59;;;;;;;13.68;7.92;;;;;;;5.38;66.46;102153.28;1711544;84;21226;-46
2020/12/08 01:45:28;;;;;;;15.75;6.78;;;;;;;5.37;66.64;102154.11;1763277;81;21585;-46
2020/12/08 01:47:58;;;;;;;13.72;7.00;;;;;;;5.37;66.62;102146.36;1764698;81;21149;-46
2020/12/08 01:50:26;;;;;;;15.13;7.30;;;;;;;5.35;66.67;102150.62;1765903;81;21196;-46
2020/12/08 01:52:54;;;;;;;11.43;6.58;;;;;;;5.35;66.65;102148.04;1769746;81;21140;-46
2020/12/08 01:55:23;;;;;;;14.10;7.22;;;;;;;5.34;66.77;102148.86;1769809;81;21174;-46
2020/12/08 01:57:51;;;;;;;12.90;7.42;;;;;;;5.36;66.77;102155.80;1722001;82;21165;-46
2020/12/08 02:00:21;;;;;;;15.63;6.90;;;;;;;5.36;66.71;102157.09;1764537;80;21141;-46
2020/12/08 02:02:50;;;;;;;16.75;7.33;;;;;;;5.35;66.67;102157.07;1765210;81;21149;-46
2020/12/08 02:05:28;;;;;;;13.30;6.90;;;;;;;5.38;66.69;102159.73;1801849;79;21545;-46
2020/12/08 02:07:56;;;;;;;12.60;7.47;;;;;;;5.36;66.61;102162.67;1788172;80;21176;-46
2020/12/08 02:10:25;;;;;;;15.08;7.78;;;;;;;5.36;66.54;102157.51;1777122;80;21510;-46
2020/12/08 02:12:54;;;;;;;13.93;6.92;;;;;;;5.36;66.54;102153.64;1780735;80;21202;-46
2020/12/08 02:15:30;;;;;;;18.75;6.90;;;;;;;5.34;66.61;102163.06;1727489;83;21164;-46
2020/12/08 02:18:00;;;;;;;13.22;6.35;;;;;;;5.36;66.56;102171.70;1739249;81;21151;-46
2020/12/08 02:20:31;;;;;;;11.55;6.87;;;;;;;5.34;66.42;102163.94;1743089;81;21170;-46
2020/12/08 02:23:00;;;;;;;14.33;6.87;;;;;;;5.34;66.33;102169.51;1750300;81;21160;-46
2020/12/08 02:25:29;;;;;;;12.33;6.92;;;;;;;5.34;66.43;102178.55;1756409;81;21172;-46
2020/12/08 02:27:58;;;;;;;18.98;7.92;;;;;;;5.33;66.51;102174.23;1750159;81;21168;-46
2020/12/08 02:30:26;;;;;;;17.10;7.10;;;;;;;5.33;66.54;102173.83;1685117;83;21151;-46
2020/12/08 02:32:55;;;;;;;14.33;7.60;;;;;;;5.33;66.51;102175.53;1748290;81;21286;-46
2020/12/08 02:35:25;;;;;;;14.78;7.37;;;;;;;5.32;66.42;102178.93;1750073;81;21600;-46
2020/12/08 02:37:54;;;;;;;12.45;6.65;;;;;;;5.31;66.57;102179.78;1721029;81;21149;-46
2020/12/08 02:40:23;;;;;;;15.65;7.45;;;;;;;5.33;66.44;102180.69;1740733;81;21156;-46
2020/12/08 02:42:52;;;;;;;22.15;8.48;;;;;;;5.30;66.22;102176.73;1749263;81;21307;-46
2020/12/08 02:45:20;;;;;;;16.10;7.50;;;;;;;5.28;66.49;102169.37;1744100;81;21314;-46
2020/12/08 02:47:49;;;;;;;15.08;7.37;;;;;;;5.29;66.62;102172.02;1745627;81;21310;-46
2020/12/08 02:50:18;;;;;;;15.18;7.45;;;;;;;5.30;66.63;102170.28;1720769;81;21184;-46
2020/12/08 02:52:46;;;;;;;12.18;6.60;;;;;;;5.32;66.31;102169.89;1741390;81;21136;-46
2020/12/08 02:55:15;;;;;;;12.05;7.35;;;;;;;5.31;66.29;102175.91;1747520;81;21550;-47
2020/12/08 02:57:45;;;;;;;14.40;7.30;;;;;;;5.29;66.23;102177.17;1751792;81;21179;-46
2020/12/08 03:00:14;;;;;;;12.28;6.85;;;;;;;5.30;66.40;102178.02;1751621;81;21298;-46
2020/12/08 03:02:43;;;;;;;13.70;6.45;;;;;;;5.31;66.29;102166.47;1749737;81;21136;-46
2020/12/08 03:05:11;;;;;;;13.08;6.62;;;;;;;5.32;66.26;102180.22;1746637;81;21156;-46
2020/12/08 03:07:40;;;;;;;15.48;6.72;;;;;;;5.32;66.22;102177.23;1704148;83;21146;-45
2020/12/08 03:10:09;;;;;;;13.38;7.65;;;;;;;5.33;66.04;102181.56;1771740;80;21199;-46
2020/12/08 03:12:38;;;;;;;16.87;7.00;;;;;;;5.33;65.99;102175.53;1719748;83;21180;-46
2020/12/08 03:15:07;;;;;;;17.95;6.87;;;;;;;5.34;66.07;102184.99;1785341;80;21134;-46
2020/12/08 03:17:40;;;;;;;14.95;7.30;;;;;;;5.35;65.85;102180.30;1719108;83;21200;-46
2020/12/08 03:20:10;;;;;;;16.42;7.58;;;;;;;5.31;65.91;102182.36;1778223;80;21584;-46
2020/12/08 03:22:41;;;;;;;18.27;7.45;;;;;;;5.33;66.08;102188.44;1784565;80;21649;-46
2020/12/08 03:25:10;;;;;;;14.20;6.62;;;;;;;5.35;66.06;102188.05;1778223;80;21121;-46
2020/12/08 03:27:40;;;;;;;20.72;7.28;;;;;;;5.34;66.05;102179.83;1779671;80;21101;-46
2020/12/08 03:30:09;;;;;;;13.03;6.62;;;;;;;5.37;66.06;102174.75;1786707;80;21172;-46
2020/12/08 03:32:38;;;;;;;14.53;7.65;;;;;;;5.52;65.42;102170.78;1779906;80;21140;-46
2020/12/08 03:35:08;;;;;;;12.80;6.28;;;;;;;5.41;65.78;102172.69;1718776;83;21567;-46
2020/12/08 03:37:36;;;;;;;19.17;8.13;;;;;;;5.38;65.87;102167.03;1769048;80;21181;-45
2020/12/08 03:40:07;;;;;;;15.78;6.75;;;;;;;5.37;65.85;102164.43;1786258;80;21162;-46
2020/12/08 03:42:36;;;;;;;16.02;7.58;;;;;;;5.37;65.89;102169.19;1769973;80;21180;-46
2020/12/08 03:45:06;;;;;;;19.80;8.10;;;;;;;5.37;65.77;102169.59;1719528;83;21565;-46
2020/12/08 03:47:36;;;;;;;14.63;7.12;;;;;;;5.37;65.81;102173.47;1771000;80;21172;-46
2020/12/08 03:50:06;;;;;;;14.30;7.00;;;;;;;5.34;65.43;102169.09;1771677;80;21152;-46
2020/12/08 03:52:35;;;;;;;14.30;8.40;;;;;;;5.31;65.55;102184.95;1778056;80;21120;-46
2020/12/08 03:55:05;;;;;;;14.10;7.33;;;;;;;5.29;65.23;102199.52;1719149;83;21475;-45
2020/12/08 03:57:33;;;;;;;14.95;7.90;;;;;;;5.25;65.24;102187.39;1777946;80;21182;-46
2020/12/08 04:00:05;;;;;;;12.85;6.22;;;;;;;5.22;65.16;102182.14;1771601;80;21199;-46
2020/12/08 04:02:35;;;;;;;10.32;6.55;;;;;;;5.20;65.10;102182.12;1718490;83;21153;-46
2020/12/08 04:05:05;;;;;;;11.63;6.45;;;;;;;5.17;65.12;102187.64;1763319;80;21156;-46
2020/12/08 04:07:35;;;;;;;10.40;7.03;;;;;;;5.15;64.87;102181.16;1710860;84;21181;-46
2020/12/08 04:10:03;;;;;;;9.50;6.22;;;;;;;5.11;64.69;102186.21;1768994;81;21176;-46
2020/12/08 04:12:32;;;;;;;14.00;7.33;;;;;;;5.07;64.67;102180.53;1711396;84;21125;-45
2020/12/08 04:15:03;;;;;;;15.10;6.70;;;;;;;5.04;64.50;102181.73;1757447;80;21290;-46
2020/12/08 04:17:31;;;;;;;14.38;7.70;;;;;;;5.03;64.29;102185.16;1767178;81;21146;-46
2020/12/08 04:20:00;;;;;;;14.05;7.30;;;;;;;5.00;64.29;102197.56;1714939;83;21157;-46
2020/12/08 04:22:29;;;;;;;11.33;7.25;;;;;;;4.98;64.37;102206.09;1775955;81;21162;-46
2020/12/08 04:24:58;;;;;;;14.87;7.35;;;;;;;4.98;64.38;102198.36;1766018;81;21141;-46
2020/12/08 04:27:26;;;;;;;11.85;6.87;;;;;;;4.96;64.31;102209.94;1755854;81;21282;-46
2020/12/08 04:29:56;;;;;;;15.85;6.62;;;;;;;4.95;64.35;102213.34;1749121;81;21570;-46
2020/12/08 04:32:26;;;;;;;13.45;6.78;;;;;;;4.94;64.50;102208.62;1711285;83;21145;-46
2020/12/08 04:34:55;;;;;;;14.95;8.00;;;;;;;4.94;64.40;102199.59;1767428;81;21160;-46
2020/12/08 04:37:24;;;;;;;12.98;7.20;;;;;;;4.92;64.59;102190.91;1711688;83;21768;-45
2020/12/08 04:39:52;;;;;;;20.25;7.97;;;;;;;4.93;64.64;102182.35;1765667;81;21160;-46
2020/12/08 04:42:20;;;;;;;10.55;6.72;;;;;;;4.92;64.77;102181.88;1761957;81;21156;-46
2020/12/08 04:44:49;;;;;;;12.03;6.85;;;;;;;4.92;64.50;102179.75;1771612;81;21141;-46
2020/12/08 04:47:21;;;;;;;11.53;6.80;;;;;;;4.89;64.62;102189.56;1711483;83;21153;-46
2020/12/08 04:49:52;;;;;;;12.28;7.80;;;;;;;4.89;64.70;102199.88;1760392;81;21144;-45
2020/12/08 04:52:20;;;;;;;17.85;7.75;;;;;;;4.86;64.73;102201.08;1708887;84;21173;-46
2020/12/08 04:54:49;;;;;;;13.75;6.92;;;;;;;4.87;64.68;102202.84;1767256;80;21156;-46
2020/12/08 04:57:17;;;;;;;11.73;7.60;;;;;;;4.85;64.57;102199.35;1772520;81;21140;-46
2020/12/08 04:59:46;;;;;;;11.03;6.72;;;;;;;4.83;64.75;102201.44;1757445;81;21322;-45
2020/12/08 05:02:14;;;;;;;11.68;6.97;;;;;;;4.80;64.60;102193.20;1757396;81;21331;-46
2020/12/08 05:04:43;;;;;;;12.05;6.33;;;;;;;4.76;64.46;102200.41;1712254;84;21294;-46
2020/12/08 05:07:11;;;;;;;13.43;7.25;;;;;;;4.72;64.58;102199.87;1775744;80;21156;-46
2020/12/08 05:09:48;;;;;;;14.75;7.22;;;;;;;4.71;64.57;102199.84;1714516;83;22410;-46
2020/12/08 05:12:22;;;;;;;17.00;7.85;;;;;;;4.68;64.61;102198.05;1758782;80;21175;-46
2020/12/08 05:14:51;;;;;;;10.18;6.78;;;;;;;4.65;64.68;102194.13;1758351;80;21164;-45
2020/12/08 05:17:24;;;;;;;12.07;7.60;;;;;;;4.64;64.78;102198.81;1778770;80;21141;-46
2020/12/08 05:20:06;;;;;;;26.45;14.33;;;;;;;4.63;64.86;102190.64;1773450;80;21114;-46
2020/12/08 05:22:35;;;;;;;17.85;9.45;;;;;;;4.63;64.78;102197.50;1771921;80;21112;-46
2020/12/08 05:25:16;;;;;;;42.40;23.70;;;;;;;4.60;64.75;102204.73;1778808;80;21149;-46
2020/12/08 05:27:45;;;;;;;65.65;33.35;;;;;;;4.59;64.80;102205.58;1776897;80;21207;-46
2020/12/08 05:30:14;;;;;;;31.00;16.85;;;;;;;4.57;65.00;102209.83;1784109;80;21154;-46
2020/12/08 05:32:44;;;;;;;33.45;17.35;;;;;;;4.61;65.07;102214.23;1767371;80;21285;-46
2020/12/08 05:35:14;;;;;;;20.85;11.28;;;;;;;4.60;65.01;102220.20;1769521;80;21204;-46
2020/12/08 05:37:46;;;;;;;17.52;11.55;;;;;;;4.60;65.03;102216.73;1776949;80;21164;-46
2020/12/08 05:40:17;;;;;;;20.95;11.30;;;;;;;4.59;64.86;102218.47;1768733;80;21185;-46
2020/12/08 05:42:49;;;;;;;13.90;8.48;;;;;;;4.62;64.56;102213.78;1761665;80;21155;-46
2020/12/08 05:45:22;;;;;;;14.53;9.40;;;;;;;4.59;64.62;102217.59;1714658;83;21133;-46
2020/12/08 05:47:56;;;;;;;14.75;7.12;;;;;;;4.55;64.66;102203.77;1777131;80;21157;-46
2020/12/08 05:50:27;;;;;;;11.93;6.90;;;;;;;4.54;64.77;102213.59;1777518;80;21145;-46
2020/12/08 05:52:59;;;;;;;12.53;6.70;;;;;;;4.52;64.86;102219.13;1782648;80;21168;-46
2020/12/08 05:55:31;;;;;;;12.07;8.10;;;;;;;4.52;64.93;102217.84;1784287;80;21136;-46
2020/12/08 05:58:07;;;;;;;11.75;7.35;;;;;;;4.50;64.96;102220.80;1714391;84;21224;-45
2020/12/08 06:00:37;;;;;;;10.80;6.62;;;;;;;4.50;65.11;102227.23;1777393;80;21147;-46
2020/12/08 06:03:14;;;;;;;13.45;6.25;;;;;;;4.51;64.83;102230.29;1772215;80;21162;-45
2020/12/08 06:05:45;;;;;;;9.95;7.08;;;;;;;4.51;64.97;102230.29;1772752;80;21154;-46
2020/12/08 06:08:22;;;;;;;13.15;7.17;;;;;;;4.54;64.93;102231.64;1771905;81;21166;-46
2020/12/08 06:10:53;;;;;;;13.25;7.62;;;;;;;4.54;64.98;102232.93;1766723;80;21145;-46
2020/12/08 06:13:31;;;;;;;17.37;7.95;;;;;;;4.55;65.04;102228.25;1685612;85;21645;-47
2020/12/08 06:16:03;;;;;;;15.95;6.97;;;;;;;4.56;65.18;102215.80;1771031;81;21145;-45
2020/12/08 06:18:38;;;;;;;11.28;6.42;;;;;;;4.56;65.26;102211.93;1764698;81;21153;-47
2020/12/08 06:21:27;;;;;;;13.13;6.92;;;;;;;4.57;65.12;102209.83;1679040;84;21363;-47
2020/12/08 06:23:59;;;;;;;11.43;7.20;;;;;;;4.56;65.02;102214.51;1762818;81;21192;-45
2020/12/08 06:26:37;;;;;;;12.93;7.92;;;;;;;4.57;65.19;102210.23;1765519;81;21533;-47
2020/12/08 06:29:10;;;;;;;11.60;6.45;;;;;;;4.58;65.01;102210.27;1685389;84;21153;-45
2020/12/08 06:31:43;;;;;;;13.98;6.85;;;;;;;4.59;64.97;102217.18;1771358;81;21165;-45
2020/12/08 06:34:31;;;;;;;14.13;7.65;;;;;;;4.59;65.01;102218.47;1766437;81;21177;-45
2020/12/08 06:37:10;;;;;;;12.15;8.10;;;;;;;4.59;64.95;102213.31;1679161;85;21169;-46
2020/12/08 06:39:39;;;;;;;13.05;7.40;;;;;;;4.57;65.00;102212.41;1768895;81;21133;-46
2020/12/08 06:42:14;;;;;;;15.35;8.05;;;;;;;4.57;64.96;102210.23;1766544;81;21127;-46
2020/12/08 06:44:42;;;;;;;16.65;8.73;;;;;;;4.57;65.14;102209.83;1769438;81;21139;-46
2020/12/08 06:47:10;;;;;;;16.23;7.33;;;;;;;4.89;64.61;102208.91;1679229;84;21775;-46
2020/12/08 06:49:39;;;;;;;12.47;7.78;;;;;;;5.20;63.68;102204.46;1767547;81;21131;-46
2020/12/08 06:52:10;;;;;;;11.97;7.62;;;;;;;4.94;64.39;102214.19;1768497;81;21161;-46
2020/12/08 06:54:39;;;;;;;12.50;6.22;;;;;;;4.74;65.04;102211.10;1766115;81;21731;-46
2020/12/08 06:57:07;;;;;;;16.37;7.75;;;;;;;4.73;65.03;102217.11;1767135;81;21142;-46
2020/12/08 06:59:36;;;;;;;16.27;7.95;;;;;;;4.72;65.12;102225.66;1768817;81;21580;-46
2020/12/08 07:02:04;;;;;;;14.63;8.50;;;;;;;4.72;65.19;102198.59;1767554;81;21284;-46
2020/12/08 07:04:32;;;;;;;13.35;6.72;;;;;;;4.73;65.26;102213.65;1770168;81;21300;-46
2020/12/08 07:07:00;;;;;;;13.60;7.30;;;;;;;4.73;65.12;102225.25;1768750;81;21283;-46
2020/12/08 07:09:33;;;;;;;15.50;7.37;;;;;;;4.70;65.13;102219.59;1679217;85;21309;-46
2020/12/08 07:12:03;;;;;;;13.83;7.65;;;;;;;4.68;65.36;102225.12;1766617;80;21159;-46
2020/12/08 07:14:31;;;;;;;13.55;7.20;;;;;;;4.71;65.62;102223.05;1723172;83;21140;-47
2020/12/08 07:17:00;;;;;;;17.37;7.45;;;;;;;4.74;65.77;102229.15;1673935;85;21175;-46
2020/12/08 07:19:29;;;;;;;18.12;7.72;;;;;;;4.78;65.90;102243.86;1686025;85;21190;-45
2020/12/08 07:22:00;;;;;;;18.35;8.33;;;;;;;4.81;65.78;102225.91;1686079;85;21229;-46
2020/12/08 07:24:30;;;;;;;16.12;7.37;;;;;;;4.81;65.84;102232.35;1679889;85;21145;-46
2020/12/08 07:26:59;;;;;;;17.20;7.72;;;;;;;4.78;65.62;102231.41;1686157;85;21194;-46
2020/12/08 07:29:27;;;;;;;18.80;7.95;;;;;;;4.77;65.55;102231.82;1685479;85;21168;-46
2020/12/08 07:31:56;;;;;;;17.82;8.70;;;;;;;4.76;65.67;102239.08;1686039;85;21197;-46
2020/12/08 07:34:26;;;;;;;14.87;7.42;;;;;;;4.76;65.71;102235.22;1686152;85;21600;-47
2020/12/08 07:36:55;;;;;;;17.67;8.43;;;;;;;4.78;65.69;102237.41;1684195;85;21757;-46
2020/12/08 07:39:24;;;;;;;16.07;8.28;;;;;;;4.77;65.54;102230.53;1686028;84;21257;-47
2020/12/08 07:42:04;;;;;;;14.73;7.90;;;;;;;4.75;65.45;102232.20;1685980;85;21319;-47
2020/12/08 07:44:33;;;;;;;13.80;8.03;;;;;;;4.69;65.59;102233.34;1684783;85;21645;-48
2020/12/08 07:47:02;;;;;;;16.55;7.08;;;;;;;4.65;65.81;102231.52;1684135;85;21143;-47
2020/12/08 07:49:40;;;;;;;18.23;8.20;;;;;;;4.64;66.07;102223.31;1674087;85;21167;-47
2020/12/08 07:52:08;;;;;;;15.28;8.50;;;;;;;4.61;66.20;102227.11;1665732;84;21166;-47
2020/12/08 07:54:37;;;;;;;12.88;7.08;;;;;;;4.59;66.44;102222.74;1685993;85;21139;-48
2020/12/08 07:57:07;;;;;;;20.43;7.92;;;;;;;4.58;66.57;102225.73;1686078;85;21187;-47
2020/12/08 07:59:35;;;;;;;14.35;7.62;;;;;;;4.59;66.58;102228.78;1686209;85;21161;-47
2020/12/08 08:02:03;;;;;;;14.73;8.40;;;;;;;4.62;66.84;102231.42;1673241;85;21252;-46
2020/12/08 08:04:32;;;;;;;16.73;8.43;;;;;;;4.65;66.82;102222.48;1735838;81;21164;-47
2020/12/08 08:07:02;;;;;;;19.70;8.40;;;;;;;5.06;66.00;102214.88;1788613;80;21176;-46
2020/12/08 08:09:30;;;;;;;15.50;8.05;;;;;;;5.48;64.45;102209.43;1778798;80;21286;-47
2020/12/08 08:12:01;;;;;;;12.55;7.03;;;;;;;5.57;64.05;102209.61;1777362;80;21124;-47
2020/12/08 08:14:29;;;;;;;15.10;8.20;;;;;;;5.59;64.04;102192.44;1779322;80;21104;-46
2020/12/08 08:16:59;;;;;;;14.70;7.30;;;;;;;5.59;63.99;102196.31;1776369;80;21545;-46
2020/12/08 08:19:27;;;;;;;12.55;7.15;;;;;;;5.62;63.88;102197.69;1771146;80;21115;-46
2020/12/08 08:21:56;;;;;;;15.50;7.45;;;;;;;5.58;64.00;102188.13;1778436;80;21132;-46
2020/12/08 08:24:24;;;;;;;16.00;8.33;;;;;;;5.64;64.04;102184.38;1791088;80;21595;-46
2020/12/08 08:26:53;;;;;;;17.12;8.75;;;;;;;5.70;64.00;102187.09;1778086;80;21176;-46
2020/12/08 08:29:22;;;;;;;22.75;8.90;;;;;;;5.57;64.40;102199.28;1778392;80;21586;-46
2020/12/08 08:31:50;;;;;;;15.15;8.03;;;;;;;5.55;64.47;102186.34;1782332;80;21124;-47
2020/12/08 08:34:19;;;;;;;14.58;8.93;;;;;;;5.61;64.51;102184.30;1770970;80;21169;-46
2020/12/08 08:36:55;;;;;;;14.60;7.92;;;;;;;5.66;64.50;102184.00;1779896;80;21636;-50
2020/12/08 08:39:23;;;;;;;15.80;8.50;;;;;;;5.69;64.37;102176.30;1724680;83;21617;-46
2020/12/08 08:41:53;;;;;;;18.62;8.35;;;;;;;5.68;64.50;102182.31;1748178;82;21145;-46
2020/12/08 08:44:21;;;;;;;17.85;8.03;;;;;;;5.72;64.35;102186.30;1740693;82;21133;-46
2020/12/08 08:46:50;;;;;;;21.90;8.38;;;;;;;5.80;64.14;102182.56;1743585;82;21160;-46
2020/12/08 08:49:18;;;;;;;18.48;8.18;;;;;;;5.81;64.12;102180.45;1743321;82;21216;-45
2020/12/08 08:51:47;;;;;;;15.70;7.60;;;;;;;5.84;64.04;102176.66;1728632;82;21172;-45
2020/12/08 08:54:17;;;;;;;18.65;9.05;;;;;;;5.87;63.97;102181.89;1710186;83;21143;-46
2020/12/08 08:56:45;;;;;;;19.57;8.78;;;;;;;5.88;63.70;102168.13;1721751;83;21193;-47
2020/12/08 08:59:13;;;;;;;19.20;8.65;;;;;;;5.92;63.64;102169.92;1711382;83;21190;-47
2020/12/08 09:01:42;;;;;;;14.65;8.55;;;;;;;5.93;63.64;102169.09;1748168;82;21351;-47
2020/12/08 09:04:11;;;;;;;13.80;8.75;;;;;;;5.93;63.48;102160.47;1696955;83;21163;-48
2020/12/08 09:06:40;;;;;;;17.95;8.90;;;;;;;5.91;63.46;102162.16;1716777;82;21510;-47
2020/12/08 09:09:09;;;;;;;18.82;8.00;;;;;;;5.91;63.35;102159.56;1712155;84;21185;-46
2020/12/08 09:11:38;;;;;;;16.37;8.43;;;;;;;5.87;63.07;102152.19;1712253;83;21307;-47
2020/12/08 09:14:08;;;;;;;18.98;8.88;;;;;;;5.86;63.14;102149.55;1757365;81;21299;-47
2020/12/08 09:16:38;;;;;;;17.00;7.65;;;;;;;5.84;63.31;102149.53;1766669;81;21124;-47
2020/12/08 09:19:07;;;;;;;17.97;8.90;;;;;;;5.85;63.18;102137.08;1757689;81;21283;-46
2020/12/08 09:21:35;;;;;;;17.23;7.90;;;;;;;5.85;63.18;102137.08;1768930;81;21653;-46
2020/12/08 09:24:04;;;;;;;22.55;9.53;;;;;;;5.85;63.20;102139.66;1768878;81;21159;-44
2020/12/08 09:26:32;;;;;;;14.38;8.60;;;;;;;5.86;63.39;102135.34;1759635;81;21136;-46
2020/12/08 09:29:01;;;;;;;18.37;9.58;;;;;;;5.85;63.43;102133.62;1755888;81;21754;-43
2020/12/08 09:31:30;;;;;;;18.75;9.33;;;;;;;5.86;63.38;102131.05;1750290;81;21282;-46
2020/12/08 09:33:58;;;;;;;16.02;8.75;;;;;;;5.85;63.27;102124.17;1711255;84;21330;-47
2020/12/08 09:36:26;;;;;;;19.17;8.03;;;;;;;5.85;63.29;102116.41;1767157;81;21152;-48
2020/12/08 09:38:55;;;;;;;16.57;9.00;;;;;;;5.87;63.44;102116.02;1767532;81;21206;-45
2020/12/08 09:41:24;;;;;;;17.07;8.03;;;;;;;5.88;63.48;102112.58;1705901;84;21121;-43
2020/12/08 09:43:54;;;;;;;23.25;9.55;;;;;;;5.89;63.40;102124.67;1764531;80;21164;-47
2020/12/08 09:46:22;;;;;;;19.07;9.08;;;;;;;5.89;63.28;102119.50;1769879;81;21142;-47
2020/12/08 09:48:50;;;;;;;20.85;9.38;;;;;;;5.89;63.50;102119.50;1774909;81;21155;-47
2020/12/08 09:51:18;;;;;;;18.95;8.68;;;;;;;5.93;63.54;102126.47;1711820;84;21169;-46
2020/12/08 09:53:48;;;;;;;13.95;7.62;;;;;;;5.95;63.52;102115.74;1767256;80;21581;-48
2020/12/08 09:56:17;;;;;;;19.35;8.95;;;;;;;5.94;63.50;102115.69;1711301;84;21769;-47
2020/12/08 09:58:45;;;;;;;15.80;7.58;;;;;;;5.94;63.50;102116.56;1766579;81;21145;-47
2020/12/08 10:01:13;;;;;;;15.18;8.18;;;;;;;5.93;63.40;102108.39;1760297;81;21259;-46
2020/12/08 10:03:42;;;;;;;17.90;9.63;;;;;;;5.93;63.46;102108.39;1711233;84;21173;-46
2020/12/08 10:06:12;;;;;;;19.12;9.28;;;;;;;5.95;63.52;102095.48;1770021;80;21758;-47
2020/12/08 10:08:42;;;;;;;17.23;8.68;;;;;;;5.97;63.45;102093.80;1764548;81;21148;-47
2020/12/08 10:11:13;;;;;;;17.65;8.75;;;;;;;5.98;63.29;102095.11;1754568;81;21136;-47
2020/12/08 10:13:42;;;;;;;15.38;8.25;;;;;;;5.97;63.39;102085.64;1764065;81;21283;-47
2020/12/08 10:16:11;;;;;;;15.80;9.25;;;;;;;6.00;63.24;102089.97;1711266;84;21149;-47
2020/12/08 10:18:39;;;;;;;18.32;9.28;;;;;;;6.02;63.38;102094.33;1765154;81;21137;-47
2020/12/08 10:21:09;;;;;;;14.45;8.35;;;;;;;6.06;63.38;102093.53;1711489;84;21705;-47
2020/12/08 10:23:38;;;;;;;19.62;9.00;;;;;;;6.08;63.47;102093.14;1772501;81;21135;-48
2020/12/08 10:26:10;;;;;;;17.25;7.97;;;;;;;6.11;63.16;102095.80;1711402;84;21174;-47
2020/12/08 10:28:38;;;;;;;18.62;9.38;;;;;;;6.11;63.04;102091.03;1776768;81;21137;-47
2020/12/08 10:31:07;;;;;;;18.45;7.78;;;;;;;6.12;63.17;102092.34;1778798;81;21609;-46
2020/12/08 10:33:36;;;;;;;18.27;8.50;;;;;;;6.12;63.08;102079.42;1778380;81;21153;-47
2020/12/08 10:36:04;;;;;;;18.05;8.70;;;;;;;6.14;63.16;102073.02;1769863;81;21586;-47
2020/12/08 10:38:33;;;;;;;24.12;8.10;;;;;;;6.15;62.90;102076.91;1708416;84;21311;-47
2020/12/08 10:41:01;;;;;;;17.75;8.80;;;;;;;6.14;62.97;102071.28;1757157;81;21298;-47
2020/12/08 10:43:30;;;;;;;17.82;8.80;;;;;;;6.15;63.09;102065.28;1767152;81;21601;-47
2020/12/08 10:46:00;;;;;;;17.30;9.48;;;;;;;6.14;63.06;102059.65;1769375;81;21553;-45
2020/12/08 10:48:29;;;;;;;14.30;7.97;;;;;;;6.15;63.04;102052.36;1759301;80;21283;-47
2020/12/08 10:50:57;;;;;;;20.05;8.58;;;;;;;6.14;63.07;102050.61;1711806;84;21213;-47
2020/12/08 10:53:26;;;;;;;21.93;8.30;;;;;;;6.15;63.21;102047.19;1759969;81;21133;-47
2020/12/08 10:55:54;;;;;;;16.80;8.15;;;;;;;6.20;63.28;102065.37;1760335;81;21191;-46
2020/12/08 10:58:23;;;;;;;14.55;8.00;;;;;;;6.25;63.42;102047.78;1765027;80;21158;-46
2020/12/08 11:00:52;;;;;;;18.23;7.85;;;;;;;6.32;63.06;102052.22;1777921;81;21287;-47
2020/12/08 11:03:20;;;;;;;12.35;7.67;;;;;;;6.37;62.87;102049.27;1769709;81;21173;-44
2020/12/08 11:05:49;;;;;;;17.17;7.97;;;;;;;6.42;62.82;102050.23;1770680;81;21153;-47
2020/12/08 11:08:18;;;;;;;14.68;8.93;;;;;;;6.43;62.73;102057.13;1773766;81;21141;-47
2020/12/08 11:10:47;;;;;;;16.45;7.70;;;;;;;6.50;62.68;102053.80;1769216;81;21592;-46
2020/12/08 11:13:16;;;;;;;13.22;8.05;;;;;;;6.62;62.11;102050.93;1760205;81;21168;-46
2020/12/08 11:15:46;;;;;;;15.55;7.65;;;;;;;6.70;61.99;102053.23;1708550;83;21597;-94
2020/12/08 11:18:14;;;;;;;16.77;7.72;;;;;;;6.74;62.02;102045.52;1759733;81;21273;-94
2020/12/08 11:20:43;;;;;;;12.93;7.62;;;;;;;6.81;61.54;102052.53;1757936;81;21159;-94
2020/12/08 11:23:11;;;;;;;19.80;8.50;;;;;;;6.82;61.32;102043.06;1711408;84;21618;-46
2020/12/08 11:25:39;;;;;;;13.72;7.75;;;;;;;6.56;62.00;102053.89;1764239;81;21161;-47
2020/12/08 11:28:07;;;;;;;19.07;7.87;;;;;;;6.47;62.48;102060.65;1761231;81;21354;-47
2020/12/08 11:30:35;;;;;;;14.93;8.00;;;;;;;6.52;62.50;102054.69;1706030;84;21145;-47
2020/12/08 11:33:03;;;;;;;12.98;7.97;;;;;;;6.73;62.01;102053.27;1766261;81;21282;-47
2020/12/08 11:35:34;;;;;;;13.18;7.05;;;;;;;6.86;61.46;102050.02;1757701;81;21597;-47